createdAt,value
2022-09-15T00:01:03.089Z,16.70
2022-09-15T00:02:05.764Z,16.70
2022-09-15T00:03:09.042Z,16.70
2022-09-15T00:04:14.381Z,16.70
2022-09-15T00:05:18.485Z,16.70
2022-09-15T00:06:20.713Z,16.70
2022-09-15T00:07:27.517Z,16.70
2022-09-15T00:08:30.435Z,16.70
2022-09-15T00:09:33.959Z,16.70
2022-09-15T00:10:37.700Z,16.70
2022-09-15T00:11:40.908Z,16.70
2022-09-15T00:12:43.123Z,16.70
2022-09-15T00:13:47.153Z,16.70
2022-09-15T00:14:49.623Z,16.70
2022-09-15T00:15:53.200Z,16.70
2022-09-15T00:16:55.741Z,16.70
2022-09-15T00:17:58.883Z,16.70
2022-09-15T00:19:02.937Z,16.60
2022-09-15T00:20:06.774Z,16.60
2022-09-15T00:21:12.334Z,16.60
2022-09-15T00:22:14.721Z,16.60
2022-09-15T00:23:18.431Z,16.50
2022-09-15T00:24:20.742Z,16.60
2022-09-15T00:25:24.396Z,16.50
2022-09-15T00:26:30.861Z,16.60
2022-09-15T00:27:34.287Z,16.50
2022-09-15T00:28:37.077Z,16.50
2022-09-15T00:29:40.828Z,16.50
2022-09-15T00:30:44.972Z,16.50
2022-09-15T00:31:48.385Z,16.50
2022-09-15T00:32:50.650Z,16.50
2022-09-15T00:33:56.797Z,16.50
2022-09-15T00:34:59.107Z,16.40
2022-09-15T00:36:04.976Z,16.50
2022-09-15T00:37:07.308Z,16.40
2022-09-15T00:38:13.258Z,16.20
2022-09-15T00:39:15.570Z,16.40
2022-09-15T00:40:18.795Z,16.40
2022-09-15T00:41:23.281Z,16.40
2022-09-15T00:42:27.772Z,16.40
2022-09-15T00:43:49.271Z,16.40
2022-09-15T00:44:58.078Z,16.40
2022-09-15T00:46:00.447Z,16.40
2022-09-15T00:47:18.805Z,16.40
2022-09-15T00:48:24.441Z,16.40
2022-09-15T00:49:30.866Z,16.40
2022-09-15T00:50:35.792Z,16.50
2022-09-15T00:51:58.155Z,16.50
2022-09-15T00:53:05.130Z,16.50
2022-09-15T00:54:20.667Z,16.50
2022-09-15T00:55:26.671Z,16.50
2022-09-15T00:56:31.867Z,16.50
2022-09-15T00:57:39.836Z,16.60
2022-09-15T00:58:50.104Z,16.40
2022-09-15T00:59:54.848Z,16.50
2022-09-15T01:01:01.274Z,16.50
2022-09-15T01:02:12.760Z,16.60
2022-09-15T01:03:17.567Z,16.90
2022-09-15T01:04:20.200Z,16.60
2022-09-15T01:05:27.647Z,16.60
2022-09-15T01:06:35.555Z,16.50
2022-09-15T01:07:50.121Z,16.60
2022-09-15T01:08:58.337Z,17.50
2022-09-15T01:10:08.583Z,16.60
2022-09-15T01:11:10.949Z,16.60
2022-09-15T01:12:14.604Z,16.60
2022-09-15T01:13:18.899Z,16.70
2022-09-15T01:14:22.079Z,16.60
2022-09-15T01:15:32.003Z,16.60
2022-09-15T01:16:48.931Z,16.60
2022-09-15T01:18:05.264Z,16.60
2022-09-15T01:19:47.591Z,16.60
2022-09-15T01:21:07.804Z,16.60
2022-09-15T01:22:24.239Z,16.60
2022-09-15T01:24:09.402Z,16.60
2022-09-15T01:25:36.296Z,17.70
2022-09-15T01:27:37.614Z,16.70
2022-09-15T01:29:00.157Z,16.40
2022-09-15T01:30:09.238Z,16.70
2022-09-15T01:31:23.703Z,16.70
2022-09-15T01:32:52.777Z,16.70
2022-09-15T01:34:04.208Z,16.70
2022-09-15T01:35:26.376Z,16.70
2022-09-15T01:36:38.911Z,16.70
2022-09-15T01:37:50.306Z,16.70
2022-09-15T01:39:04.106Z,15.60
2022-09-15T01:40:09.111Z,16.70
2022-09-15T01:41:18.379Z,16.70
2022-09-15T01:42:24.636Z,16.60
2022-09-15T01:43:31.250Z,16.70
2022-09-15T01:44:39.262Z,16.60
2022-09-15T01:45:48.266Z,16.60
2022-09-15T01:46:58.335Z,16.60
2022-09-15T01:48:05.491Z,16.60
2022-09-15T01:49:14.812Z,16.60
2022-09-15T01:50:23.407Z,16.60
2022-09-15T01:51:29.351Z,16.60
2022-09-15T01:52:33.663Z,16.60
2022-09-15T01:53:37.410Z,16.60
2022-09-15T01:54:48.826Z,16.60
2022-09-15T01:55:57.573Z,16.60
2022-09-15T01:57:00.683Z,16.60
2022-09-15T01:58:04.049Z,16.60
2022-09-15T01:59:07.135Z,16.60
2022-09-15T02:00:11.510Z,16.60
2022-09-15T02:01:22.435Z,17.40
2022-09-15T02:02:31.257Z,16.50
2022-09-15T02:03:44.728Z,16.60
2022-09-15T02:04:53.874Z,15.60
2022-09-15T02:06:02.986Z,16.60
2022-09-15T02:07:14.431Z,16.60
2022-09-15T02:08:25.555Z,16.60
2022-09-15T02:09:35.797Z,16.60
2022-09-15T02:10:45.111Z,16.50
2022-09-15T02:11:59.006Z,16.50
2022-09-15T02:13:16.991Z,16.50
2022-09-15T02:14:36.356Z,16.60
2022-09-15T02:15:47.080Z,16.50
2022-09-15T02:16:56.171Z,16.50
2022-09-15T02:17:59.227Z,16.50
2022-09-15T02:19:18.323Z,16.50
2022-09-15T02:20:26.363Z,16.50
2022-09-15T02:21:40.746Z,16.50
2022-09-15T02:22:50.452Z,16.50
2022-09-15T02:24:01.447Z,17.10
2022-09-15T02:25:08.707Z,16.50
2022-09-15T02:26:17.863Z,16.50
2022-09-15T02:27:25.220Z,16.50
2022-09-15T02:28:34.152Z,16.60
2022-09-15T02:29:39.960Z,16.50
2022-09-15T02:33:26.518Z,16.50
2022-09-15T02:34:34.110Z,16.40
2022-09-15T02:35:37.883Z,16.40
2022-09-15T02:36:42.828Z,16.40
2022-09-15T02:37:47.130Z,16.40
2022-09-15T02:38:56.049Z,16.50
2022-09-15T02:40:02.267Z,16.40
2022-09-15T02:41:05.911Z,16.40
2022-09-15T02:42:09.234Z,16.40
2022-09-15T02:43:14.180Z,16.30
2022-09-15T02:44:17.647Z,16.30
2022-09-15T02:45:20.307Z,16.30
2022-09-15T02:46:24.642Z,16.00
2022-09-15T02:47:28.884Z,16.30
2022-09-15T02:48:33.589Z,16.30
2022-09-15T02:49:35.907Z,16.30
2022-09-15T02:50:41.282Z,16.30
2022-09-15T02:51:43.584Z,16.40
2022-09-15T02:52:46.955Z,16.40
2022-09-15T02:53:49.591Z,16.40
2022-09-15T02:54:53.599Z,16.40
2022-09-15T02:55:56.273Z,16.40
2022-09-15T02:57:00.297Z,16.40
2022-09-15T02:58:02.549Z,16.40
2022-09-15T02:59:06.059Z,16.40
2022-09-15T03:00:12.940Z,16.40
2022-09-15T03:01:17.357Z,16.40
2022-09-15T03:02:20.589Z,16.40
2022-09-15T03:03:23.962Z,16.40
2022-09-15T03:04:27.825Z,16.40
2022-09-15T03:05:31.705Z,16.40
2022-09-15T03:06:35.178Z,15.40
2022-09-15T03:07:38.558Z,15.80
2022-09-15T03:08:41.529Z,16.40
2022-09-15T03:09:45.066Z,16.40
2022-09-15T03:10:47.267Z,16.40
2022-09-15T03:11:50.479Z,16.40
2022-09-15T03:12:55.024Z,16.40
2022-09-15T03:14:00.103Z,16.30
2022-09-15T03:15:02.593Z,16.40
2022-09-15T03:16:09.283Z,16.40
2022-09-15T03:17:11.465Z,16.40
2022-09-15T03:18:14.627Z,16.40
2022-09-15T03:19:16.976Z,16.40
2022-09-15T03:20:23.983Z,16.40
2022-09-15T03:21:29.435Z,16.40
2022-09-15T03:22:32.589Z,16.50
2022-09-15T03:23:35.236Z,16.40
2022-09-15T03:24:38.572Z,16.50
2022-09-15T03:25:40.742Z,16.40
2022-09-15T03:26:44.104Z,16.40
2022-09-15T03:27:47.247Z,16.50
2022-09-15T03:28:50.527Z,16.50
2022-09-15T03:29:53.651Z,16.50
2022-09-15T03:30:59.202Z,16.50
2022-09-15T03:32:01.843Z,16.50
2022-09-15T03:33:05.246Z,16.50
2022-09-15T03:34:07.503Z,16.50
2022-09-15T03:35:11.785Z,16.00
2022-09-15T03:36:16.468Z,16.50
2022-09-15T03:37:18.847Z,16.50
2022-09-15T03:38:22.123Z,16.50
2022-09-15T03:39:24.517Z,16.50
2022-09-15T03:40:27.820Z,16.50
2022-09-15T03:41:30.114Z,16.50
2022-09-15T03:42:33.515Z,16.50
2022-09-15T03:43:37.341Z,16.50
2022-09-15T03:44:40.646Z,16.40
2022-09-15T03:45:42.957Z,16.50
2022-09-15T03:46:46.200Z,16.50
2022-09-15T03:47:48.465Z,16.50
2022-09-15T03:48:51.766Z,16.50
2022-09-15T03:49:53.911Z,16.50
2022-09-15T03:51:00.538Z,16.50
2022-09-15T03:52:04.599Z,16.40
2022-09-15T03:53:08.084Z,16.50
2022-09-15T03:54:10.835Z,16.50
2022-09-15T03:55:13.911Z,16.40
2022-09-15T03:56:24.525Z,16.50
2022-09-15T03:57:27.754Z,16.50
2022-09-15T03:58:30.870Z,16.50
2022-09-15T03:59:34.329Z,16.50
2022-09-15T04:00:36.992Z,16.50
2022-09-15T04:01:40.395Z,16.50
2022-09-15T04:02:42.577Z,16.60
2022-09-15T04:03:50.669Z,16.60
2022-09-15T04:04:53.753Z,16.60
2022-09-15T04:05:56.900Z,16.70
2022-09-15T04:07:00.083Z,16.60
2022-09-15T04:08:03.741Z,16.60
2022-09-15T04:09:07.463Z,16.70
2022-09-15T04:10:10.393Z,16.70
2022-09-15T04:11:15.009Z,16.70
2022-09-15T04:12:17.575Z,16.60
2022-09-15T04:13:20.655Z,16.70
2022-09-15T04:14:23.123Z,16.70
2022-09-15T04:15:26.661Z,16.70
2022-09-15T04:16:29.139Z,16.70
2022-09-15T04:17:32.595Z,16.70
2022-09-15T04:18:35.973Z,16.70
2022-09-15T04:19:39.357Z,16.70
2022-09-15T04:20:41.685Z,16.80
2022-09-15T04:21:45.920Z,16.80
2022-09-15T04:22:48.495Z,16.80
2022-09-15T04:23:54.138Z,16.80
2022-09-15T04:24:56.439Z,16.80
2022-09-15T04:26:02.151Z,16.80
2022-09-15T04:27:04.577Z,16.80
2022-09-15T04:28:07.657Z,16.80
2022-09-15T04:29:14.012Z,16.80
2022-09-15T04:30:17.487Z,16.70
2022-09-15T04:31:20.507Z,16.80
2022-09-15T04:32:23.735Z,16.80
2022-09-15T04:33:25.947Z,16.80
2022-09-15T04:34:29.130Z,16.80
2022-09-15T04:35:31.751Z,16.80
2022-09-15T04:36:34.959Z,16.80
2022-09-15T04:37:37.185Z,16.80
2022-09-15T04:38:40.886Z,16.80
2022-09-15T04:39:45.621Z,16.80
2022-09-15T04:40:48.300Z,16.90
2022-09-15T04:41:51.453Z,16.80
2022-09-15T04:42:53.937Z,16.80
2022-09-15T04:43:57.301Z,16.70
2022-09-15T04:44:59.444Z,16.70
2022-09-15T04:46:03.366Z,16.70
2022-09-15T04:47:05.906Z,16.70
2022-09-15T04:48:09.061Z,16.70
2022-09-15T04:49:11.493Z,16.60
2022-09-15T04:50:14.803Z,16.60
2022-09-15T04:51:21.253Z,16.60
2022-09-15T04:52:24.358Z,16.60
2022-09-15T04:53:26.625Z,16.60
2022-09-15T04:54:30.022Z,16.60
2022-09-15T04:55:34.308Z,16.60
2022-09-15T04:56:39.389Z,16.60
2022-09-15T04:57:41.563Z,16.50
2022-09-15T04:58:46.843Z,16.50
2022-09-15T04:59:49.045Z,16.50
2022-09-15T05:00:52.306Z,16.50
2022-09-15T05:01:55.454Z,16.60
2022-09-15T05:03:00.180Z,16.50
2022-09-15T05:04:04.099Z,16.50
2022-09-15T05:05:08.205Z,16.50
2022-09-15T05:06:13.657Z,16.50
2022-09-15T05:07:17.150Z,16.50
2022-09-15T05:08:19.592Z,16.50
2022-09-15T05:09:22.935Z,16.40
2022-09-15T05:10:25.157Z,16.50
2022-09-15T05:11:31.424Z,16.50
2022-09-15T05:12:33.914Z,16.50
2022-09-15T05:13:38.399Z,16.50
2022-09-15T05:14:40.586Z,16.50
2022-09-15T05:15:43.874Z,16.50
2022-09-15T05:16:46.213Z,16.50
2022-09-15T05:17:49.822Z,16.50
2022-09-15T05:18:54.811Z,16.50
2022-09-15T05:19:57.906Z,16.50
2022-09-15T05:21:00.685Z,16.50
2022-09-15T05:22:03.965Z,16.50
2022-09-15T05:23:06.523Z,16.50
2022-09-15T05:24:09.685Z,17.30
2022-09-15T05:25:12.022Z,16.60
2022-09-15T05:26:18.425Z,16.60
2022-09-15T05:27:21.943Z,16.60
2022-09-15T05:28:26.117Z,16.60
2022-09-15T05:29:30.618Z,16.60
2022-09-15T05:30:40.472Z,16.50
2022-09-15T05:31:45.828Z,16.70
2022-09-15T05:32:48.150Z,16.80
2022-09-15T05:33:53.226Z,16.80
2022-09-15T05:34:55.523Z,16.80
2022-09-15T05:36:01.594Z,16.80
2022-09-15T05:37:06.307Z,16.80
2022-09-15T05:38:08.458Z,16.90
2022-09-15T05:39:11.931Z,16.90
2022-09-15T05:40:15.415Z,17.00
2022-09-15T05:41:20.868Z,17.00
2022-09-15T05:42:24.454Z,17.00
2022-09-15T05:43:27.633Z,17.10
2022-09-15T05:44:31.696Z,17.10
2022-09-15T05:45:34.969Z,16.30
2022-09-15T05:46:37.197Z,17.10
2022-09-15T05:47:40.301Z,17.10
2022-09-15T05:48:42.624Z,17.10
2022-09-15T05:49:46.220Z,17.10
2022-09-15T05:50:50.297Z,17.10
2022-09-15T05:51:53.448Z,17.10
2022-09-15T05:52:55.747Z,17.00
2022-09-15T05:53:59.087Z,17.10
2022-09-15T05:55:01.486Z,17.10
2022-09-15T05:56:07.480Z,17.10
2022-09-15T05:57:09.713Z,17.20
2022-09-15T05:58:14.967Z,17.20
2022-09-15T05:59:17.356Z,17.20
2022-09-15T06:00:20.887Z,17.20
2022-09-15T06:01:26.304Z,17.20
2022-09-15T06:02:28.614Z,17.60
2022-09-15T06:03:32.032Z,17.20
2022-09-15T06:04:34.421Z,17.30
2022-09-15T06:05:37.915Z,17.30
2022-09-15T06:06:40.302Z,17.30
2022-09-15T06:07:43.586Z,17.30
2022-09-15T06:08:52.856Z,17.30
2022-09-15T06:09:57.797Z,17.30
2022-09-15T06:11:05.205Z,17.40
2022-09-15T06:12:08.683Z,17.30
2022-09-15T06:13:11.015Z,16.70
2022-09-15T06:14:15.863Z,17.40
2022-09-15T06:15:18.037Z,17.40
2022-09-15T06:16:24.125Z,17.40
2022-09-15T06:17:26.507Z,17.40
2022-09-15T06:18:29.781Z,17.50
2022-09-15T06:19:34.648Z,17.50
2022-09-15T06:20:36.879Z,18.40
2022-09-15T06:21:40.115Z,17.50
2022-09-15T06:22:45.853Z,17.50
2022-09-15T06:23:54.905Z,17.50
2022-09-15T06:24:57.434Z,17.50
2022-09-15T06:26:08.415Z,17.50
2022-09-15T06:27:11.813Z,17.50
2022-09-15T06:28:14.281Z,17.60
2022-09-15T06:29:18.769Z,17.60
2022-09-15T06:30:20.976Z,17.60
2022-09-15T06:31:27.093Z,17.60
2022-09-15T06:32:29.603Z,17.70
2022-09-15T06:33:32.786Z,17.60
2022-09-15T06:34:35.947Z,17.70
2022-09-15T06:35:38.111Z,17.70
2022-09-15T06:36:41.373Z,17.80
2022-09-15T06:37:43.576Z,17.70
2022-09-15T06:38:47.657Z,17.80
2022-09-15T06:39:51.224Z,17.80
2022-09-15T06:40:58.021Z,17.80
2022-09-15T06:42:03.692Z,17.90
2022-09-15T06:43:08.548Z,17.80
2022-09-15T06:44:12.617Z,17.90
2022-09-15T06:45:16.261Z,17.90
2022-09-15T06:46:22.014Z,18.00
2022-09-15T06:47:24.397Z,18.00
2022-09-15T06:48:27.649Z,18.00
2022-09-15T06:49:31.373Z,18.00
2022-09-15T06:50:34.687Z,18.00
2022-09-15T06:51:37.061Z,18.00
2022-09-15T06:52:40.313Z,18.10
2022-09-15T06:53:46.010Z,18.20
2022-09-15T06:54:49.864Z,18.20
2022-09-15T06:55:52.290Z,18.20
2022-09-15T06:56:55.665Z,18.30
2022-09-15T06:57:57.914Z,18.40
2022-09-15T06:59:02.717Z,18.40
2022-09-15T07:00:06.398Z,17.50
2022-09-15T07:01:13.279Z,18.40
2022-09-15T07:02:15.817Z,18.40
2022-09-15T07:03:19.579Z,18.40
2022-09-15T07:04:23.468Z,18.50
2022-09-15T07:05:25.906Z,18.50
2022-09-15T07:06:30.898Z,18.50
2022-09-15T07:07:33.152Z,18.50
2022-09-15T07:08:36.537Z,18.60
2022-09-15T07:09:41.270Z,18.60
2022-09-15T07:10:45.089Z,18.50
2022-09-15T07:11:48.334Z,18.60
2022-09-15T07:12:50.952Z,18.60
2022-09-15T07:13:54.247Z,18.60
2022-09-15T07:14:56.483Z,18.70
2022-09-15T07:16:02.394Z,18.20
2022-09-15T07:17:07.160Z,18.90
2022-09-15T07:18:09.443Z,19.00
2022-09-15T07:19:12.957Z,19.10
2022-09-15T07:20:15.407Z,19.20
2022-09-15T07:21:20.924Z,19.20
2022-09-15T07:22:25.004Z,19.30
2022-09-15T07:23:30.055Z,19.40
2022-09-15T07:24:32.224Z,19.50
2022-09-15T07:25:36.209Z,19.50
2022-09-15T07:26:38.587Z,19.50
2022-09-15T07:27:42.161Z,19.60
2022-09-15T07:28:46.604Z,19.60
2022-09-15T07:29:49.874Z,19.70
2022-09-15T07:30:52.217Z,19.70
2022-09-15T07:31:55.694Z,19.80
2022-09-15T07:32:59.297Z,19.80
2022-09-15T07:34:03.590Z,19.80
2022-09-15T07:35:06.277Z,19.80
2022-09-15T07:36:10.737Z,19.80
2022-09-15T07:37:14.201Z,19.80
2022-09-15T07:38:16.545Z,19.80
2022-09-15T07:39:19.800Z,19.90
2022-09-15T07:40:22.261Z,19.90
2022-09-15T07:41:28.536Z,20.00
2022-09-15T07:42:35.421Z,20.00
2022-09-15T07:43:40.151Z,20.00
2022-09-15T07:44:43.361Z,20.00
2022-09-15T07:45:48.188Z,20.10
2022-09-15T07:46:51.712Z,20.10
2022-09-15T07:48:00.514Z,20.10
2022-09-15T07:49:04.939Z,20.00
2022-09-15T07:50:09.261Z,20.70
2022-09-15T07:51:11.709Z,20.00
2022-09-15T07:52:15.006Z,20.00
2022-09-15T07:53:17.556Z,20.10
2022-09-15T07:54:22.924Z,20.20
2022-09-15T07:55:25.422Z,20.40
2022-09-15T07:56:28.875Z,20.60
2022-09-15T07:57:31.244Z,20.80
2022-09-15T07:58:35.511Z,20.90
2022-09-15T07:59:41.080Z,21.10
2022-09-15T08:00:45.155Z,21.20
2022-09-15T08:01:47.538Z,21.30
2022-09-15T08:02:50.717Z,21.40
2022-09-15T08:03:54.205Z,21.40
2022-09-15T08:04:58.088Z,21.30
2022-09-15T08:06:02.609Z,21.40
2022-09-15T08:07:07.342Z,21.50
2022-09-15T08:08:10.745Z,21.50
2022-09-15T08:09:14.993Z,21.60
2022-09-15T08:10:18.530Z,21.60
2022-09-15T08:11:22.812Z,21.50
2022-09-15T08:12:25.129Z,21.60
2022-09-15T08:13:30.338Z,21.60
2022-09-15T08:14:33.867Z,21.60
2022-09-15T08:15:37.088Z,21.60
2022-09-15T08:16:40.454Z,21.60
2022-09-15T08:17:42.724Z,21.50
2022-09-15T08:18:47.289Z,21.50
2022-09-15T08:19:49.473Z,21.50
2022-09-15T08:20:54.186Z,21.50
2022-09-15T08:21:56.494Z,21.50
2022-09-15T08:22:59.675Z,21.60
2022-09-15T08:24:02.135Z,21.60
2022-09-15T08:25:05.812Z,21.70
2022-09-15T08:26:13.589Z,21.80
2022-09-15T08:27:17.496Z,21.90
2022-09-15T08:28:19.828Z,22.00
2022-09-15T08:29:23.673Z,22.20
2022-09-15T08:30:26.969Z,22.20
2022-09-15T08:31:30.318Z,22.40
2022-09-15T08:32:34.329Z,22.60
2022-09-15T08:33:38.188Z,22.60
2022-09-15T08:34:43.122Z,22.70
2022-09-15T08:35:45.417Z,22.80
2022-09-15T08:36:49.952Z,22.90
2022-09-15T08:37:53.818Z,23.00
2022-09-15T08:38:57.380Z,23.10
2022-09-15T08:39:59.935Z,23.70
2022-09-15T08:41:06.491Z,23.20
2022-09-15T08:42:16.628Z,23.20
2022-09-15T08:43:27.959Z,23.30
2022-09-15T08:44:43.734Z,23.40
2022-09-15T08:45:54.489Z,23.50
2022-09-15T08:47:05.636Z,23.60
2022-09-15T08:48:15.791Z,23.70
2022-09-15T08:49:49.997Z,23.90
2022-09-15T08:50:55.775Z,23.90
2022-09-15T08:52:07.131Z,24.10
2022-09-15T08:53:17.288Z,24.20
2022-09-15T08:54:24.287Z,24.30
2022-09-15T08:55:38.547Z,24.30
2022-09-15T08:56:43.307Z,24.40
2022-09-15T08:57:48.743Z,24.50
2022-09-15T08:58:51.068Z,24.50
2022-09-15T08:59:55.489Z,24.50
2022-09-15T09:01:06.398Z,24.50
2022-09-15T09:02:51.313Z,24.60
2022-09-15T09:04:24.399Z,24.60
2022-09-15T09:05:46.758Z,24.70
2022-09-15T09:07:07.134Z,24.70
2022-09-15T09:08:26.673Z,24.70
2022-09-15T09:09:39.173Z,24.60
2022-09-15T09:10:52.755Z,24.60
2022-09-15T09:12:16.765Z,24.50
2022-09-15T09:13:35.350Z,24.40
2022-09-15T09:14:58.443Z,25.30
2022-09-15T09:16:26.635Z,24.20
2022-09-15T09:17:51.736Z,24.10
2022-09-15T09:19:12.579Z,24.20
2022-09-15T09:20:33.649Z,24.70
2022-09-15T09:21:42.354Z,24.20
2022-09-15T09:22:50.456Z,24.10
2022-09-15T09:24:03.295Z,24.20
2022-09-15T09:25:26.149Z,24.20
2022-09-15T09:26:35.016Z,24.30
2022-09-15T09:27:38.964Z,24.40
2022-09-15T09:28:50.519Z,24.40
2022-09-15T09:29:59.562Z,24.40
2022-09-15T09:31:08.486Z,24.40
2022-09-15T09:32:21.823Z,24.40
2022-09-15T09:33:31.617Z,24.40
2022-09-15T09:34:42.680Z,24.20
2022-09-15T09:35:49.467Z,24.10
2022-09-15T09:36:58.471Z,24.20
2022-09-15T09:38:02.800Z,24.20
2022-09-15T09:39:06.297Z,24.20
2022-09-15T09:40:14.176Z,24.30
2022-09-15T09:41:25.550Z,24.30
2022-09-15T09:42:32.737Z,24.30
2022-09-15T09:43:35.420Z,24.20
2022-09-15T09:44:38.985Z,24.20
2022-09-15T09:45:41.227Z,24.20
2022-09-15T09:46:46.668Z,24.30
2022-09-15T09:47:49.450Z,24.20
2022-09-15T09:48:59.899Z,24.30
2022-09-15T09:50:02.291Z,24.30
2022-09-15T09:51:05.715Z,24.40
2022-09-15T09:52:08.247Z,24.40
2022-09-15T09:53:25.721Z,24.30
2022-09-15T09:54:31.203Z,24.30
2022-09-15T09:55:33.627Z,24.30
2022-09-15T09:56:36.962Z,24.30
2022-09-15T09:57:40.843Z,24.40
2022-09-15T09:58:45.470Z,22.70
2022-09-15T09:59:50.168Z,24.30
2022-09-15T10:00:54.352Z,24.30
2022-09-15T10:02:13.532Z,24.30
2022-09-15T10:03:19.155Z,24.20
2022-09-15T10:04:23.461Z,24.20
2022-09-15T10:05:27.005Z,24.10
2022-09-15T10:06:32.761Z,24.00
2022-09-15T10:07:41.698Z,23.90
2022-09-15T10:08:58.127Z,24.00
2022-09-15T10:10:03.119Z,24.00
2022-09-15T10:11:08.754Z,23.80
2022-09-15T10:12:23.658Z,23.80
2022-09-15T10:13:26.105Z,23.80
2022-09-15T10:14:32.682Z,23.80
2022-09-15T10:15:42.072Z,23.80
2022-09-15T10:16:44.840Z,23.70
2022-09-15T10:17:53.187Z,23.20
2022-09-15T10:18:58.755Z,23.60
2022-09-15T10:20:02.274Z,23.50
2022-09-15T10:21:08.554Z,23.40
2022-09-15T10:22:24.783Z,23.40
2022-09-15T10:23:31.034Z,23.40
2022-09-15T10:24:39.287Z,23.20
2022-09-15T10:25:59.190Z,23.10
2022-09-15T10:27:18.304Z,23.00
2022-09-15T10:28:23.893Z,23.00
2022-09-15T10:29:26.079Z,23.00
2022-09-15T10:30:29.683Z,23.10
2022-09-15T10:31:33.093Z,23.20
2022-09-15T10:32:36.434Z,23.20
2022-09-15T10:33:41.978Z,23.20
2022-09-15T10:34:44.274Z,23.20
2022-09-15T10:35:47.800Z,23.20
2022-09-15T10:36:50.359Z,23.20
2022-09-15T10:38:05.461Z,22.90
2022-09-15T10:39:24.391Z,22.80
2022-09-15T10:40:36.055Z,22.80
2022-09-15T10:41:48.915Z,22.80
2022-09-15T10:42:55.507Z,22.80
2022-09-15T10:44:24.468Z,22.60
2022-09-15T10:45:35.108Z,22.40
2022-09-15T10:46:54.637Z,22.30
2022-09-15T10:48:27.835Z,22.10
2022-09-15T10:49:54.291Z,22.10
2022-09-15T10:51:03.255Z,22.10
2022-09-15T10:52:20.915Z,22.10
2022-09-15T10:53:44.319Z,21.90
2022-09-15T10:55:02.286Z,21.90
2022-09-15T10:56:19.077Z,21.70
2022-09-15T10:57:43.634Z,21.60
2022-09-15T10:59:06.607Z,21.60
2022-09-15T11:00:13.424Z,21.60
2022-09-15T11:01:45.436Z,21.50
2022-09-15T11:03:12.733Z,22.00
2022-09-15T11:04:34.060Z,21.30
2022-09-15T11:05:58.280Z,21.20
2022-09-15T11:07:11.623Z,21.20
2022-09-15T11:08:33.925Z,21.20
2022-09-15T11:09:46.257Z,21.10
2022-09-15T11:10:58.805Z,21.20
2022-09-15T11:12:24.842Z,21.20
2022-09-15T11:13:50.288Z,21.20
2022-09-15T11:15:15.809Z,21.20
2022-09-15T11:16:35.151Z,21.30
2022-09-15T11:17:56.370Z,21.20
2022-09-15T11:19:14.977Z,21.10
2022-09-15T11:20:50.560Z,21.10
2022-09-15T11:21:58.234Z,21.00
2022-09-15T11:23:13.425Z,20.90
2022-09-15T11:24:37.766Z,20.90
2022-09-15T11:25:46.401Z,20.40
2022-09-15T11:26:53.628Z,20.90
2022-09-15T11:28:04.733Z,20.80
2022-09-15T11:29:16.087Z,20.50
2022-09-15T11:30:21.707Z,20.90
2022-09-15T11:31:29.886Z,21.00
2022-09-15T11:32:42.753Z,20.90
2022-09-15T11:33:52.792Z,20.80
2022-09-15T11:35:08.855Z,20.90
2022-09-15T11:36:17.932Z,20.90
2022-09-15T11:37:25.985Z,20.80
2022-09-15T11:38:43.247Z,20.80
2022-09-15T11:39:53.670Z,20.80
2022-09-15T11:41:11.316Z,20.80
2022-09-15T11:42:23.399Z,20.80
2022-09-15T11:43:36.375Z,20.80
2022-09-15T11:44:42.976Z,20.80
2022-09-15T11:45:50.851Z,20.80
2022-09-15T11:47:15.582Z,20.90
2022-09-15T11:48:27.372Z,20.90
2022-09-15T11:49:38.127Z,21.00
2022-09-15T11:50:46.967Z,21.00
2022-09-15T11:51:57.618Z,21.00
2022-09-15T11:53:11.142Z,20.90
2022-09-15T11:54:21.362Z,20.90
2022-09-15T11:55:33.018Z,21.00
2022-09-15T11:56:43.603Z,21.00
2022-09-15T11:57:55.965Z,21.00
2022-09-15T11:59:12.790Z,21.10
2022-09-15T12:00:17.514Z,21.00
2022-09-15T12:01:24.661Z,21.00
2022-09-15T12:02:36.065Z,20.00
2022-09-15T12:03:48.837Z,21.00
2022-09-15T12:05:07.151Z,21.00
2022-09-15T12:06:17.476Z,20.90
2022-09-15T12:07:29.015Z,20.80
2022-09-15T12:08:40.378Z,21.00
2022-09-15T12:09:42.961Z,21.10
2022-09-15T12:10:52.701Z,21.10
2022-09-15T12:12:01.901Z,21.10
2022-09-15T12:13:07.374Z,21.00
2022-09-15T12:14:17.071Z,21.00
2022-09-15T12:15:27.564Z,21.00
2022-09-15T12:16:34.882Z,20.80
2022-09-15T12:17:46.614Z,20.70
2022-09-15T12:18:54.926Z,20.70
2022-09-15T12:20:06.417Z,20.50
2022-09-15T12:21:18.673Z,20.60
2022-09-15T12:22:29.148Z,21.10
2022-09-15T12:23:39.194Z,20.70
2022-09-15T12:24:57.822Z,20.60
2022-09-15T12:26:14.450Z,20.60
2022-09-15T12:27:20.139Z,20.50
2022-09-15T12:28:54.298Z,20.50
2022-09-15T12:30:01.273Z,20.50
2022-09-15T12:31:25.262Z,20.50
2022-09-15T12:32:30.424Z,20.50
2022-09-15T12:33:45.467Z,20.40
2022-09-15T12:35:27.601Z,20.40
2022-09-15T12:36:45.942Z,20.40
2022-09-15T12:37:55.221Z,20.40
2022-09-15T12:39:00.085Z,20.50
2022-09-15T12:40:07.217Z,20.60
2022-09-15T12:41:11.438Z,20.60
2022-09-15T12:42:20.420Z,20.60
2022-09-15T12:43:25.782Z,20.60
2022-09-15T12:44:35.416Z,20.50
2022-09-15T12:45:44.179Z,20.50
2022-09-15T12:46:51.967Z,20.50
2022-09-15T12:47:58.806Z,20.40
2022-09-15T12:49:04.746Z,20.40
2022-09-15T12:50:25.679Z,20.40
2022-09-15T12:51:30.213Z,20.30
2022-09-15T12:52:45.575Z,20.30
2022-09-15T12:53:54.445Z,20.20
2022-09-15T12:55:03.636Z,20.10
2022-09-15T12:56:10.454Z,20.10
2022-09-15T12:57:26.510Z,20.10
2022-09-15T12:58:35.144Z,20.00
2022-09-15T12:59:38.398Z,20.10
2022-09-15T13:01:00.596Z,20.10
2022-09-15T13:02:43.844Z,20.10
2022-09-15T13:04:23.268Z,20.10
2022-09-15T13:05:52.448Z,20.10
2022-09-15T13:07:39.331Z,20.00
2022-09-15T13:08:50.227Z,20.10
2022-09-15T13:10:17.204Z,20.00
2022-09-15T13:11:28.677Z,20.00
2022-09-15T13:12:41.338Z,20.10
2022-09-15T13:13:51.621Z,20.10
2022-09-15T13:15:01.192Z,20.20
2022-09-15T13:16:12.239Z,20.40
2022-09-15T13:17:21.493Z,20.50
2022-09-15T13:18:25.251Z,21.60
2022-09-15T13:19:41.138Z,20.50
2022-09-15T13:20:54.122Z,21.60
2022-09-15T13:22:06.315Z,20.50
2022-09-15T13:23:13.958Z,20.50
2022-09-15T13:24:26.053Z,20.60
2022-09-15T13:25:30.433Z,20.60
2022-09-15T13:26:37.599Z,20.70
2022-09-15T13:27:43.100Z,20.70
2022-09-15T13:28:50.526Z,20.80
2022-09-15T13:30:10.147Z,20.90
2022-09-15T13:31:26.860Z,21.00
2022-09-15T13:32:43.821Z,21.00
2022-09-15T13:35:52.326Z,21.00
2022-09-15T13:38:59.297Z,20.80
2022-09-15T13:40:27.507Z,20.70
2022-09-15T13:41:59.813Z,20.70
2022-09-15T13:43:36.288Z,20.70
2022-09-15T13:45:33.207Z,20.60
2022-09-15T13:46:54.078Z,20.50
2022-09-15T13:48:23.164Z,20.50
2022-09-15T13:49:49.864Z,20.50
2022-09-15T13:51:00.183Z,19.90
2022-09-15T13:52:15.716Z,20.50
2022-09-15T13:53:32.501Z,20.60
2022-09-15T13:54:37.351Z,20.70
2022-09-15T13:55:43.649Z,20.60
2022-09-15T13:56:49.309Z,20.80
2022-09-15T13:59:24.619Z,20.70
2022-09-15T14:00:30.801Z,20.70
2022-09-15T14:01:39.025Z,20.80
2022-09-15T14:03:59.954Z,20.90
2022-09-15T14:05:02.756Z,20.90
2022-09-15T14:06:15.518Z,21.00
2022-09-15T14:07:23.821Z,21.00
2022-09-15T14:08:33.629Z,21.00
2022-09-15T14:09:47.952Z,20.80
2022-09-15T14:10:55.537Z,20.80
2022-09-15T14:12:03.611Z,20.80
2022-09-15T14:13:06.134Z,20.80
2022-09-15T14:14:30.388Z,20.90
2022-09-15T14:15:32.812Z,20.80
2022-09-15T14:16:39.148Z,20.70
2022-09-15T14:17:46.612Z,20.50
2022-09-15T14:18:49.979Z,20.50
2022-09-15T14:19:55.724Z,20.50
2022-09-15T14:21:00.568Z,20.50
2022-09-15T14:22:26.126Z,20.50
2022-09-15T14:23:28.985Z,20.50
2022-09-15T14:24:33.299Z,20.40
2022-09-15T14:25:35.782Z,20.40
2022-09-15T14:26:39.822Z,20.40
2022-09-15T14:27:46.873Z,20.40
2022-09-15T14:28:53.174Z,20.40
2022-09-15T14:29:58.187Z,20.50
2022-09-15T14:31:03.093Z,20.50
2022-09-15T14:32:05.801Z,20.50
2022-09-15T14:33:18.867Z,20.50
2022-09-15T14:34:25.908Z,20.50
2022-09-15T14:35:35.904Z,20.60
2022-09-15T14:36:39.620Z,20.50
2022-09-15T14:37:47.072Z,20.50
2022-09-15T14:39:09.075Z,20.50
2022-09-15T14:40:23.563Z,20.50
2022-09-15T14:41:25.857Z,20.50
2022-09-15T14:42:32.719Z,20.60
2022-09-15T14:43:36.836Z,20.70
2022-09-15T14:46:11.148Z,20.70